KPWM/PWM METAR and TAF weather

Enter ICAO airport designator
Station Type Date Time Source
KPWM METAR 2020/08/14 16:51 UTC NOAA

KPWM 141651Z 05010KT 10SM FEW070 BKN250 29/13 A3007 RMK AO2 SLP182 T02940133


Station Type Date Time Source
KPWM Decoded METAR 2020/08/14 16:51 UTC NOAA

PORTLAND INTERNATIONAL JETPORT, ME, United States (KPWM) 43-39N 70-18W 15M
Aug 14, 2020 - 12:51 PM EDT / 2020.08.14 1651 UTC
Wind: from the NE (050 degrees) at 12 MPH (10 KT):0
Visibility: 10 mile(s):0
Sky conditions: mostly cloudy
Temperature: 84.9 F (29.4 C)
Dew Point: 55.9 F (13.3 C)
Relative Humidity: 37%
Pressure (altimeter): 30.07 in. Hg (1018 hPa)
ob: KPWM 141651Z 05010KT 10SM FEW070 BKN250 29/13 A3007 RMK AO2 SLP182 T02940133
cycle: 17

Station Type Date Time Source
KPWM TAF 2020/08/14 12:24 UTC NOAA

TAF KPWM 141121Z 1412/1512 01005KT P6SM BKN250
FM141400 07009KT P6SM BKN250
FM151100 03010KT P6SM BKN020

Example: see airport list